createdAt,value
2019-02-22T00:00:49.189Z,0.00
2019-02-22T00:01:49.151Z,0.00
2019-02-22T00:02:49.140Z,0.00
2019-02-22T00:03:49.119Z,0.00
2019-02-22T00:04:49.114Z,0.00
2019-02-22T00:05:49.130Z,0.00
2019-02-22T00:06:49.102Z,0.00
2019-02-22T00:07:49.088Z,0.00
2019-02-22T00:08:49.070Z,0.00
2019-02-22T00:09:49.915Z,0.00
2019-02-22T00:10:49.085Z,0.00
2019-02-22T00:11:49.034Z,0.00
2019-02-22T00:12:49.029Z,0.00
2019-02-22T00:13:49.010Z,0.00
2019-02-22T00:14:49.000Z,0.00
2019-02-22T00:15:48.991Z,0.00
2019-02-22T00:16:49.004Z,0.00
2019-02-22T00:17:48.967Z,0.00
2019-02-22T00:18:48.972Z,0.00
2019-02-22T00:19:48.948Z,0.00
2019-02-22T00:20:48.937Z,0.00
2019-02-22T00:21:48.963Z,0.00
2019-02-22T00:22:48.914Z,0.00
2019-02-22T00:23:48.898Z,0.00
2019-02-22T00:24:48.898Z,0.00
2019-02-22T00:25:48.875Z,0.00
2019-02-22T00:26:48.903Z,0.00
2019-02-22T00:27:48.897Z,0.00
2019-02-22T00:28:48.850Z,0.00
2019-02-22T00:29:48.832Z,0.00
2019-02-22T00:30:48.826Z,0.00
2019-02-22T00:31:48.810Z,0.00
2019-02-22T00:32:48.831Z,0.00
2019-02-22T00:33:48.805Z,0.00
2019-02-22T00:34:48.882Z,0.00
2019-02-22T00:35:48.835Z,0.00
2019-02-22T00:36:48.854Z,0.00
2019-02-22T00:37:48.742Z,0.00
2019-02-22T00:38:48.734Z,0.00
2019-02-22T00:39:48.719Z,0.00
2019-02-22T00:40:48.713Z,0.00
2019-02-22T00:41:48.716Z,0.00
2019-02-22T00:42:50.377Z,0.00
2019-02-22T00:43:48.685Z,0.00
2019-02-22T00:44:48.673Z,0.00
2019-02-22T00:45:48.654Z,0.00
2019-02-22T00:46:48.699Z,0.00
2019-02-22T00:47:48.632Z,0.00
2019-02-22T00:48:48.625Z,0.00
2019-02-22T00:49:48.613Z,0.00
2019-02-22T00:50:48.640Z,0.00
2019-02-22T00:51:48.618Z,0.00
2019-02-22T00:52:48.633Z,0.00
2019-02-22T00:53:48.572Z,0.00
2019-02-22T00:54:48.562Z,0.00
2019-02-22T00:55:48.542Z,0.00
2019-02-22T00:56:48.540Z,0.00
2019-02-22T00:57:48.544Z,0.00
2019-02-22T00:58:48.512Z,0.00
2019-02-22T00:59:48.499Z,0.00
2019-02-22T01:00:48.491Z,0.00
2019-02-22T01:01:48.471Z,0.00
2019-02-22T01:02:48.572Z,0.00
2019-02-22T01:03:48.465Z,0.00
2019-02-22T01:04:48.453Z,0.00
2019-02-22T01:05:48.430Z,0.00
2019-02-22T01:06:48.550Z,0.00
2019-02-22T01:07:48.439Z,0.00
2019-02-22T01:08:48.430Z,0.00
2019-02-22T01:09:48.383Z,0.00
2019-02-22T01:10:48.399Z,0.00
2019-02-22T01:11:48.368Z,0.00
2019-02-22T01:12:48.386Z,0.00
2019-02-22T01:13:48.350Z,0.00
2019-02-22T01:14:48.341Z,0.00
2019-02-22T01:15:48.329Z,0.00
2019-02-22T01:16:48.315Z,0.00
2019-02-22T01:17:48.326Z,0.00
2019-02-22T01:19:49.402Z,0.00
2019-02-22T01:20:54.376Z,0.00
2019-02-22T01:21:49.257Z,0.00
2019-02-22T01:22:48.278Z,0.00
2019-02-22T01:23:48.235Z,0.00
2019-02-22T01:24:48.230Z,0.00
2019-02-22T01:25:48.216Z,0.00
2019-02-22T01:26:48.210Z,0.00
2019-02-22T01:27:48.217Z,0.00
2019-02-22T01:28:48.220Z,0.00
2019-02-22T01:29:48.164Z,0.00
2019-02-22T01:30:48.159Z,0.00
2019-02-22T01:31:48.149Z,0.00
2019-02-22T01:32:48.138Z,0.00
2019-02-22T01:33:48.149Z,0.00
2019-02-22T01:34:48.114Z,0.00
2019-02-22T01:35:48.095Z,0.00
2019-02-22T01:37:49.200Z,0.00
2019-02-22T01:38:48.096Z,0.00
2019-02-22T01:39:48.059Z,0.00
2019-02-22T01:40:48.105Z,0.00
2019-02-22T01:41:48.051Z,0.00
2019-02-22T01:42:48.033Z,0.00
2019-02-22T01:43:48.035Z,0.00
2019-02-22T01:44:48.023Z,0.00
2019-02-22T01:45:47.986Z,0.00
2019-02-22T01:46:48.005Z,0.00
2019-02-22T01:47:47.965Z,0.00
2019-02-22T01:48:47.964Z,0.00
2019-02-22T01:49:47.970Z,0.00
2019-02-22T01:50:47.936Z,0.00
2019-02-22T01:51:47.916Z,0.00
2019-02-22T01:52:47.928Z,0.00
2019-02-22T01:53:47.919Z,0.00
2019-02-22T01:54:47.976Z,0.00
2019-02-22T01:55:47.878Z,0.00
2019-02-22T01:56:47.869Z,0.00
2019-02-22T01:57:47.856Z,0.00
2019-02-22T01:58:48.879Z,0.00
2019-02-22T01:59:47.837Z,0.00
2019-02-22T02:00:47.840Z,0.00
2019-02-22T02:01:47.807Z,0.00
2019-02-22T02:02:47.805Z,0.00
2019-02-22T02:03:47.810Z,0.00
2019-02-22T02:04:47.814Z,0.00
2019-02-22T02:05:47.769Z,0.00
2019-02-22T02:06:47.759Z,0.00
2019-02-22T02:07:47.742Z,0.00
2019-02-22T02:08:47.733Z,0.00
2019-02-22T02:09:47.744Z,0.00
2019-02-22T02:10:54.238Z,0.00
2019-02-22T02:11:48.700Z,0.00
2019-02-22T02:12:47.692Z,0.00
2019-02-22T02:13:47.677Z,0.00
2019-02-22T02:14:47.697Z,0.00
2019-02-22T02:15:47.651Z,0.00
2019-02-22T02:17:48.748Z,0.00
2019-02-22T02:18:47.641Z,0.00
2019-02-22T02:19:47.631Z,0.00
2019-02-22T02:20:47.629Z,0.00
2019-02-22T02:21:47.585Z,0.00
2019-02-22T02:22:47.581Z,0.00
2019-02-22T02:23:47.559Z,0.00
2019-02-22T02:24:47.586Z,0.00
2019-02-22T02:25:47.542Z,0.00
2019-02-22T02:26:47.534Z,0.00
2019-02-22T02:27:47.520Z,0.00
2019-02-22T02:28:47.517Z,0.00
2019-02-22T02:29:47.527Z,0.00
2019-02-22T02:30:47.493Z,0.00
2019-02-22T02:31:47.472Z,0.00
2019-02-22T02:32:47.479Z,0.00
2019-02-22T02:33:47.451Z,0.00
2019-02-22T02:34:47.485Z,0.00
2019-02-22T02:35:47.455Z,0.00
2019-02-22T02:36:47.426Z,0.00
2019-02-22T02:37:47.419Z,0.00
2019-02-22T02:38:47.401Z,0.00
2019-02-22T02:39:47.384Z,0.00
2019-02-22T02:40:47.404Z,0.00
2019-02-22T02:41:47.359Z,0.00
2019-02-22T02:42:47.405Z,0.00
2019-02-22T02:43:47.342Z,0.00
2019-02-22T02:44:47.340Z,0.00
2019-02-22T02:45:47.338Z,0.00
2019-02-22T02:46:47.318Z,0.00
2019-02-22T02:47:47.296Z,0.00
2019-02-22T02:48:47.299Z,0.00
2019-02-22T02:49:47.273Z,0.00
2019-02-22T02:50:47.292Z,0.00
2019-02-22T02:51:47.254Z,0.00
2019-02-22T02:52:47.275Z,0.00
2019-02-22T02:53:47.276Z,0.00
2019-02-22T02:54:47.224Z,0.00
2019-02-22T02:55:47.229Z,0.00
2019-02-22T02:56:47.212Z,0.00
2019-02-22T02:57:47.190Z,0.00
2019-02-22T02:58:47.194Z,0.00
2019-02-22T02:59:47.179Z,0.00
2019-02-22T03:00:47.184Z,0.00
2019-02-22T03:01:47.139Z,0.00
2019-02-22T03:02:47.143Z,0.00
2019-02-22T03:03:47.125Z,0.00
2019-02-22T03:04:47.121Z,0.00
2019-02-22T03:05:47.122Z,0.00
2019-02-22T03:06:47.087Z,0.00
2019-02-22T03:07:47.074Z,0.00
2019-02-22T03:08:47.068Z,0.00
2019-02-22T03:09:47.055Z,0.00
2019-02-22T03:10:47.081Z,0.00
2019-02-22T03:11:47.053Z,0.00
2019-02-22T03:12:47.029Z,0.00
2019-02-22T03:13:47.011Z,0.00
2019-02-22T03:14:47.005Z,0.00
2019-02-22T03:15:46.981Z,0.00
2019-02-22T03:16:47.044Z,0.00
2019-02-22T03:17:46.961Z,0.00
2019-02-22T03:18:46.961Z,0.00
2019-02-22T03:19:46.937Z,0.00
2019-02-22T03:20:46.947Z,0.00
2019-02-22T03:21:46.945Z,0.00
2019-02-22T03:22:46.939Z,0.00
2019-02-22T03:23:46.894Z,0.00
2019-02-22T03:24:46.893Z,0.00
2019-02-22T03:25:46.871Z,0.00
2019-02-22T03:26:46.898Z,0.00
2019-02-22T03:27:46.861Z,0.00
2019-02-22T03:28:46.841Z,0.00
2019-02-22T03:29:46.862Z,0.00
2019-02-22T03:30:46.835Z,0.00
2019-02-22T03:31:46.832Z,0.00
2019-02-22T03:32:46.802Z,0.00
2019-02-22T03:33:46.791Z,0.00
2019-02-22T03:34:46.774Z,0.00
2019-02-22T03:35:46.758Z,0.00
2019-02-22T03:36:46.790Z,0.00
2019-02-22T03:37:46.741Z,0.00
2019-02-22T03:38:46.734Z,0.00
2019-02-22T03:39:46.717Z,0.00
2019-02-22T03:40:46.713Z,0.00
2019-02-22T03:41:46.730Z,0.00
2019-02-22T03:42:46.709Z,0.00
2019-02-22T03:43:46.675Z,0.00
2019-02-22T03:44:46.664Z,0.00
2019-02-22T03:45:46.650Z,0.00
2019-02-22T03:46:46.652Z,0.00
2019-02-22T03:47:46.674Z,0.00
2019-02-22T03:48:46.622Z,0.00
2019-02-22T03:49:46.604Z,0.00
2019-02-22T03:50:46.605Z,0.00
2019-02-22T03:51:46.583Z,0.00
2019-02-22T03:52:46.604Z,0.00
2019-02-22T03:53:46.562Z,0.00
2019-02-22T03:54:46.549Z,0.00
2019-02-22T03:55:46.539Z,0.00
2019-02-22T03:56:46.537Z,0.00
2019-02-22T03:57:46.536Z,0.00
2019-02-22T03:58:46.513Z,0.00
2019-02-22T03:59:46.490Z,0.00
2019-02-22T04:00:46.486Z,0.00
2019-02-22T04:01:46.470Z,0.00
2019-02-22T04:02:46.504Z,0.00
2019-02-22T04:03:46.452Z,0.00
2019-02-22T04:04:46.441Z,0.00
2019-02-22T04:05:46.425Z,0.00
2019-02-22T04:06:46.416Z,0.00
2019-02-22T04:07:46.404Z,0.00
2019-02-22T04:08:46.431Z,0.00
2019-02-22T04:09:46.381Z,0.00
2019-02-22T04:10:46.381Z,0.00
2019-02-22T04:11:46.651Z,0.00
2019-02-22T04:12:46.360Z,0.00
2019-02-22T04:13:46.364Z,0.00
2019-02-22T04:14:46.331Z,0.00
2019-02-22T04:15:46.313Z,0.00
2019-02-22T04:16:46.307Z,0.00
2019-02-22T04:17:46.292Z,0.00
2019-02-22T04:18:46.312Z,0.00
2019-02-22T04:19:46.270Z,0.00
2019-02-22T04:20:46.265Z,0.00
2019-02-22T04:21:46.250Z,0.00
2019-02-22T04:22:46.243Z,0.00
2019-02-22T04:23:46.272Z,0.00
2019-02-22T04:24:46.215Z,0.00
2019-02-22T04:25:46.200Z,0.00
2019-02-22T04:26:46.199Z,0.00
2019-02-22T04:27:46.182Z,0.00
2019-02-22T04:28:46.211Z,0.00
2019-02-22T04:29:46.166Z,0.00
2019-02-22T04:30:46.154Z,0.00
2019-02-22T04:31:46.151Z,0.00
2019-02-22T04:33:47.273Z,0.00
2019-02-22T04:35:47.223Z,0.00
2019-02-22T04:36:46.088Z,0.00
2019-02-22T04:37:46.066Z,0.00
2019-02-22T04:38:46.122Z,0.00
2019-02-22T04:39:46.050Z,0.00
2019-02-22T04:40:46.044Z,0.00
2019-02-22T04:41:57.474Z,0.00
2019-02-22T04:42:47.013Z,0.00
2019-02-22T04:43:46.015Z,0.00
2019-02-22T04:44:46.023Z,0.00
2019-02-22T04:45:46.018Z,0.00
2019-02-22T04:46:45.977Z,0.00
2019-02-22T04:47:45.967Z,0.00
2019-02-22T04:49:47.113Z,0.00
2019-02-22T04:50:46.066Z,0.00
2019-02-22T04:53:33.139Z,0.00
2019-02-22T04:54:33.156Z,0.00
2019-02-22T04:55:33.126Z,0.00
2019-02-22T04:56:32.977Z,0.00
2019-02-22T04:57:32.971Z,0.00
2019-02-22T04:58:32.951Z,0.00
2019-02-22T04:59:32.991Z,0.00
2019-02-22T05:00:32.930Z,0.00
2019-02-22T05:01:32.931Z,0.00
2019-02-22T05:02:32.910Z,0.00
2019-02-22T05:03:32.904Z,0.00
2019-02-22T05:04:32.893Z,0.00
2019-02-22T05:05:32.907Z,0.00
2019-02-22T05:06:32.865Z,0.00
2019-02-22T05:07:32.902Z,0.00
2019-02-22T05:08:32.853Z,0.00
2019-02-22T05:09:32.846Z,0.00
2019-02-22T05:10:32.867Z,0.00
2019-02-22T05:12:33.924Z,0.00
2019-02-22T05:13:32.797Z,0.00
2019-02-22T05:14:32.778Z,0.00
2019-02-22T05:15:32.768Z,0.00
2019-02-22T05:16:32.795Z,0.00
2019-02-22T05:17:35.665Z,0.00
2019-02-22T05:18:32.736Z,0.00
2019-02-22T05:19:32.724Z,0.00
2019-02-22T05:20:32.733Z,0.00
2019-02-22T05:21:32.706Z,0.00
2019-02-22T05:22:32.683Z,0.00
2019-02-22T05:23:32.687Z,0.00
2019-02-22T05:24:32.676Z,0.00
2019-02-22T05:25:32.690Z,0.00
2019-02-22T05:26:32.643Z,0.00
2019-02-22T05:27:32.643Z,0.00
2019-02-22T05:28:32.620Z,0.00
2019-02-22T05:29:32.612Z,0.00
2019-02-22T05:30:32.628Z,0.00
2019-02-22T05:31:32.615Z,0.00
2019-02-22T05:32:32.576Z,0.00
2019-02-22T05:33:32.567Z,0.00
2019-02-22T05:34:32.565Z,0.00
2019-02-22T05:35:32.557Z,0.00
2019-02-22T05:36:32.553Z,0.00
2019-02-22T05:37:32.522Z,0.00
2019-02-22T05:38:32.507Z,0.00
2019-02-22T05:39:32.503Z,0.00
2019-02-22T05:40:32.485Z,0.00
2019-02-22T05:41:32.615Z,0.00
2019-02-22T05:42:32.464Z,0.00
2019-02-22T05:43:32.461Z,0.00
2019-02-22T05:44:32.441Z,0.00
2019-02-22T05:45:32.453Z,0.00
2019-02-22T05:46:32.527Z,0.00
2019-02-22T05:47:32.414Z,0.00
2019-02-22T05:48:32.396Z,0.00
2019-02-22T05:49:32.394Z,0.00
2019-02-22T05:50:32.372Z,0.00
2019-02-22T05:51:32.413Z,0.00
2019-02-22T05:52:32.355Z,0.00
2019-02-22T05:53:32.346Z,0.00
2019-02-22T05:54:32.326Z,0.00
2019-02-22T05:55:32.325Z,0.00
2019-02-22T05:56:32.343Z,0.00
2019-02-22T05:57:32.327Z,0.00
2019-02-22T05:58:32.286Z,0.00
2019-02-22T05:59:32.284Z,0.00
2019-02-22T06:00:32.267Z,0.00
2019-02-22T06:01:32.259Z,0.00
2019-02-22T06:02:33.910Z,0.00
2019-02-22T06:03:32.240Z,0.00
2019-02-22T06:04:32.241Z,0.00
2019-02-22T06:05:32.214Z,0.00
2019-02-22T06:06:32.198Z,0.00
2019-02-22T06:07:32.224Z,0.00
2019-02-22T06:08:32.176Z,0.00
2019-02-22T06:09:32.177Z,0.00
2019-02-22T06:10:32.159Z,0.00
2019-02-22T06:11:32.145Z,0.00
2019-02-22T06:12:34.779Z,0.00
2019-02-22T06:13:32.147Z,0.00
2019-02-22T06:14:32.135Z,0.00
2019-02-22T06:15:32.100Z,0.00
2019-02-22T06:16:32.081Z,0.00
2019-02-22T06:17:32.214Z,0.00
2019-02-22T06:18:32.070Z,0.00
2019-02-22T06:19:32.054Z,0.00
2019-02-22T06:20:32.038Z,0.00
2019-02-22T06:21:32.050Z,0.00
2019-02-22T06:22:32.048Z,0.00
2019-02-22T06:23:32.037Z,0.00
2019-02-22T06:24:31.989Z,0.00
2019-02-22T06:25:31.998Z,0.00
2019-02-22T06:26:31.983Z,0.00
2019-02-22T06:27:31.974Z,0.00
2019-02-22T06:28:31.978Z,0.00
2019-02-22T06:29:31.944Z,0.00
2019-02-22T06:30:31.952Z,0.00
2019-02-22T06:32:33.042Z,0.00
2019-02-22T06:33:31.933Z,0.00
2019-02-22T06:34:31.892Z,0.00
2019-02-22T06:35:31.884Z,0.00
2019-02-22T06:36:31.857Z,0.00
2019-02-22T06:37:31.851Z,0.00
2019-02-22T06:38:31.868Z,0.00
2019-02-22T06:40:31.814Z,0.00
2019-02-22T06:41:31.809Z,0.00
2019-02-22T06:42:31.792Z,0.00
2019-02-22T06:43:31.829Z,0.00
2019-02-22T06:44:31.771Z,0.00
2019-02-22T06:45:31.768Z,0.00
2019-02-22T06:46:31.749Z,0.00
2019-02-22T06:47:31.750Z,0.00
2019-02-22T06:48:31.722Z,0.00
2019-02-22T06:49:31.751Z,0.00
2019-02-22T06:50:34.065Z,0.00
2019-02-22T06:51:31.701Z,0.00
2019-02-22T06:52:31.684Z,5.62
2019-02-22T06:53:31.705Z,5.62
2019-02-22T06:54:31.657Z,5.62
2019-02-22T06:55:31.657Z,5.62
2019-02-22T06:56:31.640Z,5.62
2019-02-22T06:57:31.636Z,5.62
2019-02-22T06:58:31.644Z,5.62
2019-02-22T06:59:31.612Z,5.62
2019-02-22T07:00:31.595Z,0.00
2019-02-22T07:02:32.705Z,5.62
2019-02-22T07:03:31.573Z,5.62
2019-02-22T07:04:31.573Z,5.62
2019-02-22T07:05:31.539Z,5.62
2019-02-22T07:06:31.528Z,5.62
2019-02-22T07:07:31.517Z,5.62
2019-02-22T07:08:31.509Z,5.62
2019-02-22T07:09:31.639Z,5.62
2019-02-22T07:10:31.478Z,5.62
2019-02-22T07:11:31.481Z,5.62
2019-02-22T07:12:31.460Z,5.62
2019-02-22T07:14:32.631Z,11.25
2019-02-22T07:15:31.426Z,11.25
2019-02-22T07:16:31.411Z,11.25
2019-02-22T07:18:32.538Z,11.25
2019-02-22T07:19:31.413Z,16.88
2019-02-22T07:20:31.383Z,16.88
2019-02-22T07:21:43.692Z,16.88
2019-02-22T07:22:32.348Z,16.88
2019-02-22T07:23:31.343Z,16.88
2019-02-22T07:24:31.363Z,16.88
2019-02-22T07:25:31.350Z,16.88
2019-02-22T07:26:31.307Z,16.88
2019-02-22T07:27:31.293Z,22.50
2019-02-22T07:28:31.280Z,22.50
2019-02-22T07:29:31.280Z,22.50
2019-02-22T07:30:31.281Z,22.50
2019-02-22T07:32:32.362Z,22.50
2019-02-22T07:33:31.232Z,28.12
2019-02-22T07:34:31.222Z,28.12
2019-02-22T07:35:31.239Z,28.12
2019-02-22T07:36:31.194Z,28.12
2019-02-22T07:37:31.195Z,28.12
2019-02-22T07:38:31.168Z,28.12
2019-02-22T07:39:31.162Z,28.12
2019-02-22T07:40:31.171Z,28.12
2019-02-22T07:41:31.149Z,28.12
2019-02-22T07:42:31.130Z,28.12
2019-02-22T07:43:31.132Z,28.12
2019-02-22T07:44:31.135Z,28.12
2019-02-22T07:45:31.150Z,28.12
2019-02-22T07:46:31.081Z,28.12
2019-02-22T07:48:32.190Z,28.12
2019-02-22T07:49:31.058Z,28.12
2019-02-22T07:50:31.069Z,33.75
2019-02-22T07:51:31.034Z,33.75
2019-02-22T07:52:31.026Z,28.12
2019-02-22T07:53:31.018Z,28.12
2019-02-22T07:54:30.994Z,28.12
2019-02-22T07:55:31.014Z,28.12
2019-02-22T07:56:31.003Z,33.75
2019-02-22T07:57:30.973Z,33.75
2019-02-22T07:58:30.955Z,28.12
2019-02-22T07:59:30.946Z,33.75
2019-02-22T08:00:30.982Z,33.75
2019-02-22T08:01:30.927Z,33.75
2019-02-22T08:02:30.913Z,39.38
2019-02-22T08:03:30.917Z,39.38
2019-02-22T08:04:30.922Z,39.38
2019-02-22T08:05:30.921Z,45.00
2019-02-22T08:07:31.995Z,45.00
2019-02-22T08:08:30.971Z,45.00
2019-02-22T08:09:30.982Z,45.00
2019-02-22T08:10:30.965Z,50.62
2019-02-22T08:11:30.976Z,50.62
2019-02-22T08:12:30.955Z,50.62
2019-02-22T08:13:30.801Z,50.62
2019-02-22T08:14:30.797Z,50.62
2019-02-22T08:15:30.769Z,50.62
2019-02-22T08:16:30.787Z,50.62
2019-02-22T08:17:30.772Z,50.62
2019-02-22T08:18:30.740Z,50.62
2019-02-22T08:19:30.726Z,56.25
2019-02-22T08:20:30.722Z,56.25
2019-02-22T08:21:30.735Z,56.25
2019-02-22T08:22:30.700Z,56.25
2019-02-22T08:23:30.676Z,56.25
2019-02-22T08:24:30.677Z,61.88
2019-02-22T08:25:30.660Z,61.88
2019-02-22T08:26:30.684Z,61.88
2019-02-22T08:27:30.637Z,61.88
2019-02-22T08:28:30.634Z,61.88
2019-02-22T08:29:30.612Z,67.50
2019-02-22T08:30:30.610Z,67.50
2019-02-22T08:31:30.664Z,67.50
2019-02-22T08:32:30.607Z,61.88
2019-02-22T08:33:30.574Z,67.50
2019-02-22T08:34:30.574Z,67.50
2019-02-22T08:35:30.549Z,67.50
2019-02-22T08:36:30.552Z,61.88
2019-02-22T08:37:30.625Z,67.50
2019-02-22T08:38:30.549Z,67.50
2019-02-22T08:39:30.512Z,67.50
2019-02-22T08:40:30.501Z,67.50
2019-02-22T08:41:30.496Z,67.50
2019-02-22T08:42:30.506Z,67.50
2019-02-22T08:43:31.791Z,67.50
2019-02-22T08:44:30.470Z,67.50
2019-02-22T08:45:30.439Z,73.12
2019-02-22T08:46:30.452Z,67.50
2019-02-22T08:47:30.482Z,67.50
2019-02-22T08:48:30.418Z,73.12
2019-02-22T08:49:30.403Z,73.12
2019-02-22T08:50:30.395Z,73.12
2019-02-22T08:51:30.382Z,78.75
2019-02-22T08:52:30.414Z,78.75
2019-02-22T08:53:30.355Z,73.12
2019-02-22T08:54:30.351Z,73.12
2019-02-22T08:55:30.330Z,78.75
2019-02-22T08:56:30.341Z,78.75
2019-02-22T08:57:30.314Z,78.75
2019-02-22T08:58:30.335Z,78.75
2019-02-22T08:59:30.291Z,73.12
2019-02-22T09:00:30.288Z,73.12
2019-02-22T09:01:30.272Z,73.12
2019-02-22T09:02:30.278Z,73.12
2019-02-22T09:03:30.282Z,78.75
2019-02-22T09:04:30.249Z,78.75
2019-02-22T09:05:30.225Z,78.75
2019-02-22T09:06:30.217Z,78.75
2019-02-22T09:07:30.205Z,78.75
2019-02-22T09:08:30.260Z,78.75
2019-02-22T09:09:30.181Z,78.75
2019-02-22T09:10:30.176Z,78.75
2019-02-22T09:11:30.173Z,78.75
2019-02-22T09:13:42.787Z,84.38
2019-02-22T09:14:31.129Z,84.38
2019-02-22T09:15:30.125Z,84.38
2019-02-22T09:16:30.103Z,84.38
2019-02-22T09:17:30.115Z,90.00
2019-02-22T09:18:30.111Z,84.38
2019-02-22T09:19:30.079Z,90.00
2019-02-22T09:20:30.066Z,90.00
2019-02-22T09:21:30.106Z,90.00
2019-02-22T09:22:30.041Z,90.00
2019-02-22T09:23:30.058Z,90.00
2019-02-22T09:24:30.051Z,95.62
2019-02-22T09:25:30.015Z,90.00
2019-02-22T09:26:29.993Z,90.00
2019-02-22T09:27:29.989Z,95.62
2019-02-22T09:28:29.987Z,95.62
2019-02-22T09:29:30.011Z,95.62
2019-02-22T09:30:29.957Z,95.62
2019-02-22T09:31:29.951Z,90.00
2019-02-22T09:32:29.933Z,95.62
2019-02-22T09:33:29.928Z,95.62
2019-02-22T09:34:29.955Z,95.62
2019-02-22T09:36:31.017Z,101.25
2019-02-22T09:37:29.886Z,101.25
2019-02-22T09:38:29.864Z,101.25
2019-02-22T09:39:29.883Z,101.25
2019-02-22T09:40:29.875Z,95.62
2019-02-22T09:41:29.836Z,95.62
2019-02-22T09:42:29.831Z,101.25
2019-02-22T09:43:29.814Z,101.25
2019-02-22T09:44:29.831Z,101.25
2019-02-22T09:45:29.817Z,101.25
2019-02-22T09:46:29.779Z,101.25
2019-02-22T09:47:29.774Z,106.88
2019-02-22T09:48:29.756Z,101.25
2019-02-22T09:49:29.762Z,101.25
2019-02-22T09:50:29.760Z,101.25
2019-02-22T09:51:29.724Z,101.25
2019-02-22T09:52:29.711Z,101.25
2019-02-22T09:53:29.708Z,95.62
2019-02-22T09:54:29.690Z,95.62
2019-02-22T09:55:29.707Z,90.00
2019-02-22T09:56:29.669Z,84.38
2019-02-22T09:57:29.660Z,90.00
2019-02-22T09:58:29.647Z,101.25
2019-02-22T10:00:30.771Z,84.38
2019-02-22T10:01:29.618Z,78.75
2019-02-22T10:02:29.606Z,78.75
2019-02-22T10:03:29.594Z,84.38
2019-02-22T10:04:29.581Z,95.62
2019-02-22T10:05:29.612Z,101.25
2019-02-22T10:06:29.557Z,106.88
2019-02-22T10:07:29.558Z,112.50
2019-02-22T10:08:29.531Z,106.88
2019-02-22T10:09:29.536Z,101.25
2019-02-22T10:10:29.549Z,101.25
2019-02-22T10:11:29.538Z,106.88
2019-02-22T10:12:29.494Z,106.88
2019-02-22T10:13:29.489Z,101.25
2019-02-22T10:14:29.470Z,101.25
2019-02-22T10:15:29.467Z,101.25
2019-02-22T10:16:29.483Z,101.25
2019-02-22T10:17:29.442Z,101.25
2019-02-22T10:18:29.439Z,106.88
2019-02-22T10:19:29.421Z,112.50
2019-02-22T10:20:29.404Z,112.50
2019-02-22T10:21:30.416Z,106.88
2019-02-22T10:22:29.385Z,106.88
2019-02-22T10:23:29.372Z,106.88
2019-02-22T10:24:29.368Z,106.88
2019-02-22T10:26:30.505Z,112.50
2019-02-22T10:27:29.420Z,118.12
2019-02-22T10:28:29.321Z,118.12
2019-02-22T10:29:29.314Z,118.12
2019-02-22T10:30:29.295Z,118.12
2019-02-22T10:31:29.286Z,123.75
2019-02-22T10:32:29.301Z,123.75
2019-02-22T10:33:36.741Z,129.38
2019-02-22T10:34:30.252Z,135.00
2019-02-22T10:35:29.269Z,135.00
2019-02-22T10:36:29.264Z,123.75
2019-02-22T10:37:29.225Z,118.12
2019-02-22T10:38:29.211Z,123.75
2019-02-22T10:39:29.210Z,118.12
2019-02-22T10:40:29.183Z,112.50
2019-02-22T10:41:29.183Z,106.88
2019-02-22T10:42:29.194Z,106.88
2019-02-22T10:43:29.232Z,112.50
2019-02-22T10:44:29.147Z,106.88
2019-02-22T10:45:29.139Z,106.88
2019-02-22T10:46:29.120Z,106.88
2019-02-22T10:47:29.151Z,101.25
2019-02-22T10:48:29.104Z,101.25
2019-02-22T10:49:29.094Z,95.62
2019-02-22T10:50:29.082Z,90.00
2019-02-22T10:51:29.078Z,101.25
2019-02-22T10:52:29.088Z,112.50
2019-02-22T10:53:29.078Z,112.50
2019-02-22T10:54:29.032Z,112.50
2019-02-22T10:55:29.033Z,106.88
2019-02-22T10:56:29.036Z,106.88
2019-02-22T10:57:29.020Z,112.50
2019-02-22T10:58:29.026Z,118.12
2019-02-22T10:59:28.984Z,123.75
2019-02-22T11:00:28.970Z,123.75
2019-02-22T11:01:28.970Z,135.00
2019-02-22T11:02:31.212Z,140.62
2019-02-22T11:04:30.049Z,196.88
2019-02-22T11:05:29.044Z,174.38
2019-02-22T11:06:28.905Z,185.62
2019-02-22T11:07:28.909Z,146.25
2019-02-22T11:08:28.930Z,151.88
2019-02-22T11:10:29.991Z,135.00
2019-02-22T11:12:29.972Z,151.88
2019-02-22T11:13:28.862Z,140.62
2019-02-22T11:14:29.629Z,174.38
2019-02-22T11:15:28.812Z,185.62
2019-02-22T11:16:28.790Z,140.62
2019-02-22T11:17:28.789Z,135.00
2019-02-22T11:18:28.802Z,168.75
2019-02-22T11:20:29.878Z,180.00
2019-02-22T11:21:28.742Z,135.00
2019-02-22T11:22:28.732Z,135.00
2019-02-22T11:23:28.747Z,135.00
2019-02-22T11:24:28.709Z,129.38
2019-02-22T11:25:28.701Z,129.38
2019-02-22T11:26:28.692Z,129.38
2019-02-22T11:28:29.840Z,123.75
2019-02-22T11:29:28.662Z,129.38
2019-02-22T11:30:28.647Z,140.62
2019-02-22T11:32:29.745Z,157.50
2019-02-22T11:33:28.617Z,140.62
2019-02-22T11:34:28.630Z,135.00
2019-02-22T11:35:28.593Z,135.00
2019-02-22T11:36:28.577Z,129.38
2019-02-22T11:37:28.582Z,123.75
2019-02-22T11:38:28.551Z,129.38
2019-02-22T11:39:28.578Z,135.00
2019-02-22T11:40:28.538Z,146.25
2019-02-22T11:41:28.532Z,151.88
2019-02-22T11:42:28.521Z,146.25
2019-02-22T11:43:28.504Z,146.25
2019-02-22T11:44:39.635Z,168.75
2019-02-22T11:45:29.480Z,191.25
2019-02-22T11:46:28.491Z,174.38
2019-02-22T11:47:28.461Z,157.50
2019-02-22T11:48:28.460Z,180.00
2019-02-22T11:49:28.461Z,157.50
2019-02-22T11:50:28.473Z,135.00
2019-02-22T11:51:28.413Z,129.38
2019-02-22T11:52:28.412Z,118.12
2019-02-22T11:53:28.396Z,118.12
2019-02-22T11:54:28.443Z,118.12
2019-02-22T11:55:28.373Z,118.12
2019-02-22T11:56:28.367Z,123.75
2019-02-22T11:57:28.355Z,123.75
2019-02-22T11:58:28.343Z,123.75
2019-02-22T11:59:28.344Z,129.38
2019-02-22T12:00:29.349Z,135.00
2019-02-22T12:01:28.306Z,129.38
2019-02-22T12:02:28.306Z,135.00
2019-02-22T12:03:28.289Z,135.00
2019-02-22T12:04:28.277Z,140.62
2019-02-22T12:05:28.284Z,146.25
2019-02-22T12:06:28.254Z,151.88
2019-02-22T12:07:28.243Z,151.88
2019-02-22T12:08:28.245Z,157.50
2019-02-22T12:09:28.226Z,163.12
2019-02-22T12:10:28.244Z,163.12
2019-02-22T12:11:28.201Z,163.12
2019-02-22T12:12:28.187Z,168.75
2019-02-22T12:13:28.169Z,163.12
2019-02-22T12:14:28.177Z,174.38
2019-02-22T12:15:28.179Z,191.25
2019-02-22T12:16:28.155Z,146.25
2019-02-22T12:17:28.139Z,129.38
2019-02-22T12:18:28.136Z,123.75
2019-02-22T12:19:28.176Z,118.12
2019-02-22T12:20:28.125Z,123.75
2019-02-22T12:21:28.083Z,112.50
2019-02-22T12:22:28.085Z,106.88
2019-02-22T12:23:28.067Z,101.25
2019-02-22T12:24:28.080Z,101.25
2019-02-22T12:25:28.084Z,101.25
2019-02-22T12:26:28.038Z,106.88
2019-02-22T12:27:28.020Z,112.50
2019-02-22T12:28:28.028Z,112.50
2019-02-22T12:29:28.001Z,118.12
2019-02-22T12:30:27.999Z,123.75
2019-02-22T12:31:28.022Z,123.75
2019-02-22T12:33:29.112Z,118.12
2019-02-22T12:34:27.968Z,118.12
2019-02-22T12:35:27.933Z,123.75
2019-02-22T12:36:27.953Z,123.75
2019-02-22T12:37:27.914Z,123.75
2019-02-22T12:38:28.356Z,129.38
2019-02-22T12:39:27.898Z,129.38
2019-02-22T12:40:27.890Z,129.38
2019-02-22T12:41:27.911Z,129.38
2019-02-22T12:42:27.890Z,129.38
2019-02-22T12:43:27.846Z,135.00
2019-02-22T12:44:27.848Z,135.00
2019-02-22T12:45:27.826Z,129.38
2019-02-22T12:46:27.863Z,123.75
2019-02-22T12:47:27.833Z,123.75
2019-02-22T12:48:27.878Z,123.75
2019-02-22T12:49:27.790Z,123.75
2019-02-22T12:50:27.892Z,118.12
2019-02-22T12:51:27.774Z,106.88
2019-02-22T12:52:27.781Z,95.62
2019-02-22T12:53:27.739Z,95.62
2019-02-22T12:54:27.734Z,90.00
2019-02-22T12:55:27.714Z,84.38
2019-02-22T12:56:57.924Z,78.75
2019-02-22T12:57:28.707Z,78.75
2019-02-22T12:58:27.686Z,78.75
2019-02-22T12:59:27.667Z,78.75
2019-02-22T13:00:27.662Z,78.75
2019-02-22T13:01:27.657Z,78.75
2019-02-22T13:02:27.686Z,78.75
2019-02-22T13:03:27.628Z,84.38
2019-02-22T13:04:27.624Z,90.00
2019-02-22T13:05:27.607Z,90.00
2019-02-22T13:06:27.607Z,90.00
2019-02-22T13:07:27.620Z,95.62
2019-02-22T13:08:27.579Z,90.00
2019-02-22T13:09:36.276Z,90.00
2019-02-22T13:10:28.548Z,90.00
2019-02-22T13:11:27.629Z,90.00
2019-02-22T13:12:27.561Z,90.00
2019-02-22T13:13:27.527Z,90.00
2019-02-22T13:14:27.503Z,90.00
2019-02-22T13:15:27.496Z,90.00
2019-02-22T13:16:27.482Z,84.38
2019-02-22T13:17:30.706Z,84.38
2019-02-22T13:18:27.485Z,90.00
2019-02-22T13:19:27.461Z,90.00
2019-02-22T13:20:27.437Z,90.00
2019-02-22T13:21:27.433Z,90.00
2019-02-22T13:22:27.416Z,90.00
2019-02-22T13:23:27.474Z,90.00
2019-02-22T13:24:27.398Z,84.38
2019-02-22T13:25:27.400Z,84.38
2019-02-22T13:26:27.372Z,78.75
2019-02-22T13:27:27.368Z,78.75
2019-02-22T13:28:27.386Z,78.75